MSC Annamaria — H3HN — position and weather

sailwx.info

Track history (hours):
 
Tides and Currents Weather Stations Pressure Air Temp Water Temp Dewpoint Dewpoint Depression Visibility Wind Speed Wind Dir Waves Ship Positions

MSC Annamaria

Last reported at 2016-Sep-28 01:19 UTC. Time now 2016-Sep-28 03:29 UTC.
Position N 34°39' E 033°01'.

Length 188 m; draft 9.2 m.

Type: Ship (hazmat cat C). MMSI: 353852000.

Date/timePositionNaut miles runAvg speedWind from/ knotsBaromVisibWave heightAir tempDewpointWater temp
2016-Sep-28 01:19N 34°39' E 033°01'0 0.0
2016-Sep-27 23:32N 34°39' E 033°01'0 0.0
2016-Sep-27 19:31N 34°39' E 033°01'0 0.0
2016-Sep-27 14:33N 34°39' E 033°01'1 1.1
2016-Sep-27 13:33N 34°39' E 033°02'17 5.7
2016-Sep-27 10:33N 34°35' E 032°42'46912.7
2016-Sep-25 21:33N 37°33' E 023°45'25 6.3
2016-Sep-25 17:31N 37°57' E 023°36'0 0.0
2016-Sep-25 16:30N 37°57' E 023°36'0 0.0
2016-Sep-25 15:32N 37°57' E 023°36'0 0.0
2016-Sep-25 14:33N 37°57' E 023°36'0 0.0
2016-Sep-25 12:29N 37°57' E 023°36'0 0.0
2016-Sep-25 11:33N 37°57' E 023°36'0 0.0
2016-Sep-25 10:32N 37°57' E 023°36'0 0.0
2016-Sep-25 09:31N 37°57' E 023°36'0 0.0
2016-Sep-25 07:33N 37°57' E 023°36'0 0.0
2016-Sep-25 04:31N 37°57' E 023°36'0 0.0
2016-Sep-25 00:33N 37°57' E 023°36'0 0.0
2016-Sep-24 22:31N 37°57' E 023°36'0 0.0
2016-Sep-24 21:31N 37°57' E 023°36'0 0.0
2016-Sep-24 19:31N 37°57' E 023°36'0 0.0
2016-Sep-24 18:29N 37°57' E 023°36'0 0.0
2016-Sep-24 17:32N 37°57' E 023°36'3 2.7
2016-Sep-24 16:34N 37°55' E 023°36'11 5.4
2016-Sep-24 14:33N 37°45' E 023°42'  
2016-Sep-21 23:29N 44°28' E 012°38'7 0.3
2016-Sep-21 02:29N 44°31' E 012°29'46 5.2
2016-Sep-20 17:33N 45°17' E 012°25'12 4.0
2016-Sep-20 14:31N 45°27' E 012°15'0 0.0
2016-Sep-20 13:31N 45°27' E 012°15'0 0.0
2016-Sep-20 10:32N 45°27' E 012°15'0 0.0
2016-Sep-20 08:32N 45°27' E 012°15'0 0.0
2016-Sep-20 07:33N 45°27' E 012°15'0 0.0
2016-Sep-20 06:30N 45°27' E 012°15'0 0.0
2016-Sep-20 02:33N 45°27' E 012°15'0 0.0
2016-Sep-19 23:31N 45°27' E 012°15'0 0.0
2016-Sep-19 19:31N 45°27' E 012°15'0 0.0
2016-Sep-19 18:32N 45°27' E 012°15'0 0.0
2016-Sep-19 16:33N 45°27' E 012°15'0 0.0
2016-Sep-19 14:31N 45°27' E 012°15'0 0.0
2016-Sep-19 13:32N 45°27' E 012°15'0 0.0
2016-Sep-19 12:30N 45°27' E 012°15'0 0.0
2016-Sep-19 11:32N 45°27' E 012°15'0 0.0
2016-Sep-19 09:31N 45°27' E 012°15'0 0.0
2016-Sep-19 07:31N 45°27' E 012°15'0 0.0
2016-Sep-19 06:29N 45°27' E 012°15'0 0.0
2016-Sep-19 03:33N 45°27' E 012°15'0 0.0
2016-Sep-19 02:32N 45°27' E 012°15'0 0.0
2016-Sep-19 00:31N 45°27' E 012°15'0 0.0
2016-Sep-18 19:33N 45°27' E 012°15'0 0.0
2016-Sep-18 15:31N 45°27' E 012°15'0 0.0
2016-Sep-18 14:32N 45°27' E 012°15'0 0.0
2016-Sep-18 10:33N 45°27' E 012°15'0 0.0
2016-Sep-18 09:33N 45°27' E 012°15'0 0.0
2016-Sep-18 02:32N 45°27' E 012°15'0 0.0
2016-Sep-18 01:33N 45°27' E 012°15'  
Track history (hours):
 
Tides and Currents Weather Stations Pressure Air Temp Water Temp Dewpoint Dewpoint Depression Visibility Wind Speed Wind Dir Waves Ship Positions

MSC Annamaria

Last reported at 2016-Sep-28 01:19 UTC. Time now 2016-Sep-28 03:29 UTC.
Position N 34°39' E 033°01'.

Length 188 m; draft 9.2 m.

Type: Ship (hazmat cat C). MMSI: 353852000.

Date/timePositionNaut miles runAvg speedWind from/ knotsBaromVisibWave heightAir tempDewpointWater temp
2016-Sep-28 01:19N 34°39' E 033°01'0 0.0
2016-Sep-27 23:32N 34°39' E 033°01'0 0.0
2016-Sep-27 19:31N 34°39' E 033°01'0 0.0
2016-Sep-27 14:33N 34°39' E 033°01'1 1.1
2016-Sep-27 13:33N 34°39' E 033°02'17 5.7
2016-Sep-27 10:33N 34°35' E 032°42'46912.7
2016-Sep-25 21:33N 37°33' E 023°45'25 6.3
2016-Sep-25 17:31N 37°57' E 023°36'0 0.0
2016-Sep-25 16:30N 37°57' E 023°36'0 0.0
2016-Sep-25 15:32N 37°57' E 023°36'0 0.0
2016-Sep-25 14:33N 37°57' E 023°36'0 0.0
2016-Sep-25 12:29N 37°57' E 023°36'0 0.0
2016-Sep-25 11:33N 37°57' E 023°36'0 0.0
2016-Sep-25 10:32N 37°57' E 023°36'0 0.0
2016-Sep-25 09:31N 37°57' E 023°36'0 0.0
2016-Sep-25 07:33N 37°57' E 023°36'0 0.0
2016-Sep-25 04:31N 37°57' E 023°36'0 0.0
2016-Sep-25 00:33N 37°57' E 023°36'0 0.0
2016-Sep-24 22:31N 37°57' E 023°36'0 0.0
2016-Sep-24 21:31N 37°57' E 023°36'0 0.0
2016-Sep-24 19:31N 37°57' E 023°36'0 0.0
2016-Sep-24 18:29N 37°57' E 023°36'0 0.0
2016-Sep-24 17:32N 37°57' E 023°36'3 2.7
2016-Sep-24 16:34N 37°55' E 023°36'11 5.4
2016-Sep-24 14:33N 37°45' E 023°42'  
2016-Sep-21 23:29N 44°28' E 012°38'7 0.3
2016-Sep-21 02:29N 44°31' E 012°29'46 5.2
2016-Sep-20 17:33N 45°17' E 012°25'12 4.0
2016-Sep-20 14:31N 45°27' E 012°15'0 0.0
2016-Sep-20 13:31N 45°27' E 012°15'0 0.0
2016-Sep-20 10:32N 45°27' E 012°15'0 0.0
2016-Sep-20 08:32N 45°27' E 012°15'0 0.0
2016-Sep-20 07:33N 45°27' E 012°15'0 0.0
2016-Sep-20 06:30N 45°27' E 012°15'0 0.0
2016-Sep-20 02:33N 45°27' E 012°15'0 0.0
2016-Sep-19 23:31N 45°27' E 012°15'0 0.0
2016-Sep-19 19:31N 45°27' E 012°15'0 0.0
2016-Sep-19 18:32N 45°27' E 012°15'0 0.0
2016-Sep-19 16:33N 45°27' E 012°15'0 0.0
2016-Sep-19 14:31N 45°27' E 012°15'0 0.0
2016-Sep-19 13:32N 45°27' E 012°15'0 0.0
2016-Sep-19 12:30N 45°27' E 012°15'0 0.0
2016-Sep-19 11:32N 45°27' E 012°15'0 0.0
2016-Sep-19 09:31N 45°27' E 012°15'0 0.0
2016-Sep-19 07:31N 45°27' E 012°15'0 0.0
2016-Sep-19 06:29N 45°27' E 012°15'0 0.0
2016-Sep-19 03:33N 45°27' E 012°15'0 0.0
2016-Sep-19 02:32N 45°27' E 012°15'0 0.0
2016-Sep-19 00:31N 45°27' E 012°15'0 0.0
2016-Sep-18 19:33N 45°27' E 012°15'0 0.0
2016-Sep-18 15:31N 45°27' E 012°15'0 0.0
2016-Sep-18 14:32N 45°27' E 012°15'0 0.0
2016-Sep-18 10:33N 45°27' E 012°15'0 0.0
2016-Sep-18 09:33N 45°27' E 012°15'0 0.0
2016-Sep-18 02:32N 45°27' E 012°15'0 0.0
2016-Sep-18 01:33N 45°27' E 012°15'  

Dump ship's entire track history